Time;durP1;ratioP1;P1;durP2;ratioP2;P2;SDS_P1;SDS_P2;PMS_P1;PMS_P2;Temp;Humidity;BMP_temperature;BMP_pressure;BME280_temperature;BME280_humidity;BME280_pressure;Samples;Min_cycle;Max_cycle;Signal;HPM_P1;HPM_P2
2022/10/27 00:01:15;;;;;;;2.60;1.37;;;13.50;99.90;;;;;;5010029;28;20214;-92
2022/10/27 00:03:40;;;;;;;8.77;2.07;;;13.50;99.90;;;;;;5009999;28;20427;-93
2022/10/27 00:06:06;;;;;;;7.90;2.00;;;13.50;99.90;;;;;;5010355;28;20641;-92
2022/10/27 00:08:32;;;;;;;3.93;1.40;;;13.40;99.90;;;;;;4994789;28;20225;-92
2022/10/27 00:11:01;;;;;;;6.70;2.17;;;13.50;99.90;;;;;;5010469;28;20466;-93
2022/10/27 00:13:28;;;;;;;8.10;3.10;;;13.50;99.90;;;;;;5010381;28;20222;-92
2022/10/27 00:16:02;;;;;;;6.00;2.07;;;13.50;99.90;;;;;;5026033;28;20234;-93
2022/10/27 00:18:28;;;;;;;4.13;2.17;;;13.60;99.90;;;;;;5009041;28;20246;-91
2022/10/27 00:20:58;;;;;;;4.17;2.23;;;13.60;99.90;;;;;;5008856;28;20202;-93
2022/10/27 00:23:24;;;;;;;5.03;1.90;;;13.60;99.90;;;;;;5014697;28;20186;-94
2022/10/27 00:25:56;;;;;;;7.67;3.03;;;13.50;99.90;;;;;;5018613;28;20229;-92
2022/10/27 00:28:23;;;;;;;4.77;1.60;;;13.60;99.90;;;;;;5034218;28;20312;-93
2022/10/27 00:30:57;;;;;;;8.47;2.50;;;13.60;99.90;;;;;;5019699;28;20226;-92
2022/10/27 00:33:23;;;;;;;2.33;2.13;;;13.60;99.90;;;;;;5037925;28;20242;-93
2022/10/27 00:35:48;;;;;;;6.57;2.83;;;13.60;99.90;;;;;;5018775;28;20196;-92
2022/10/27 00:38:14;;;;;;;9.40;2.83;;;13.60;99.90;;;;;;5036020;28;20277;-92
2022/10/27 00:40:40;;;;;;;5.67;2.27;;;13.60;99.90;;;;;;5000785;28;20225;-93
2022/10/27 00:43:29;;;;;;;4.10;1.90;;;13.60;99.90;;;;;;5002671;28;20217;-95
2022/10/27 00:46:03;;;;;;;3.50;2.13;;;13.60;99.90;;;;;;5018459;28;20222;-92
2022/10/27 00:48:31;;;;;;;4.77;2.03;;;13.60;99.90;;;;;;5016461;28;20240;-92
2022/10/27 00:51:01;;;;;;;5.53;2.00;;;13.60;99.90;;;;;;5018093;28;20222;-92
2022/10/27 00:53:27;;;;;;;2.70;2.40;;;13.50;99.90;;;;;;5033943;28;20179;-92
2022/10/27 00:55:53;;;;;;;3.10;2.20;;;13.50;99.90;;;;;;4983168;28;20218;-92
2022/10/27 00:58:20;;;;;;;4.37;2.63;;;13.50;99.90;;;;;;5016470;28;20309;-94
2022/10/27 01:00:46;;;;;;;6.03;2.00;;;13.60;99.90;;;;;;5002043;28;20214;-92
2022/10/27 01:03:14;;;;;;;12.37;2.70;;;13.60;99.90;;;;;;5018421;28;20218;-92
2022/10/27 01:05:42;;;;;;;5.20;3.23;;;13.60;99.90;;;;;;5002236;28;20190;-92
2022/10/27 01:08:07;;;;;;;9.23;2.23;;;13.60;99.90;;;;;;5001774;28;20301;-94
2022/10/27 01:10:34;;;;;;;4.70;2.13;;;13.60;99.90;;;;;;5016723;28;20834;-92
2022/10/27 01:13:00;;;;;;;4.87;1.90;;;13.60;99.90;;;;;;5000811;28;20215;-94
2022/10/27 01:15:42;;;;;;;3.40;1.90;;;13.50;99.90;;;;;;5019258;28;20210;-93
2022/10/27 01:18:20;;;;;;;5.33;2.17;;;13.50;99.90;;;;;;5017580;28;20222;-95
2022/10/27 01:20:52;;;;;;;3.17;2.00;;;13.50;99.90;;;;;;5019046;28;20240;-92
2022/10/27 01:23:51;;;;;;;3.87;2.43;;;13.50;99.90;;;;;;5020761;28;20189;-94
2022/10/27 01:26:48;;;;;;;7.70;2.40;;;13.40;99.90;;;;;;5031858;28;20214;-94
2022/10/27 01:29:38;;;;;;;4.73;2.97;;;13.40;99.90;;;;;;5031907;28;20224;-94
2022/10/27 01:32:33;;;;;;;7.47;3.37;;;13.40;99.90;;;;;;5031588;28;20234;-93
2022/10/27 01:35:18;;;;;;;5.43;3.57;;;13.50;99.90;;;;;;5013379;28;20218;-94
2022/10/27 01:38:19;;;;;;;6.47;2.90;;;13.50;99.90;;;;;;5011465;28;20210;-94
2022/10/27 01:41:17;;;;;;;3.90;2.83;;;13.60;99.90;;;;;;4991997;28;20281;-93
2022/10/27 01:43:46;;;;;;;5.13;3.10;;;13.60;99.90;;;;;;5013426;28;20282;-94
2022/10/27 01:46:14;;;;;;;4.30;3.43;;;13.70;99.90;;;;;;5009165;28;20223;-94
2022/10/27 01:48:41;;;;;;;7.50;4.43;;;13.70;99.90;;;;;;5010085;28;20257;-94
2022/10/27 01:51:06;;;;;;;9.10;4.80;;;13.70;99.90;;;;;;4998702;28;20215;-93
2022/10/27 01:53:38;;;;;;;17.97;4.20;;;13.70;99.90;;;;;;5000608;28;20186;-93
2022/10/27 01:56:04;;;;;;;6.80;3.80;;;13.80;99.90;;;;;;5027446;28;20271;-92
2022/10/27 01:59:01;;;;;;;11.70;4.00;;;13.80;99.90;;;;;;5025995;28;20703;-94
2022/10/27 02:01:54;;;;;;;8.93;4.43;;;13.80;99.90;;;;;;5038689;28;20306;-92
2022/10/27 02:04:54;;;;;;;6.40;3.87;;;13.80;99.90;;;;;;5038180;28;20357;-94
2022/10/27 02:07:34;;;;;;;5.37;3.93;;;13.90;99.90;;;;;;5029530;28;20219;-94
2022/10/27 02:10:18;;;;;;;8.40;5.83;;;13.90;99.90;;;;;;5023968;28;20719;-95
2022/10/27 02:12:45;;;;;;;19.07;6.63;;;13.90;99.90;;;;;;5019895;28;20740;-93
2022/10/27 02:15:20;;;;;;;7.60;5.43;;;14.00;99.90;;;;;;5004914;28;20267;-94
2022/10/27 02:17:47;;;;;;;9.43;5.43;;;13.90;99.90;;;;;;5021521;28;20181;-92
2022/10/27 02:20:20;;;;;;;11.30;5.97;;;14.00;99.90;;;;;;5030779;28;20191;-91
2022/10/27 02:22:48;;;;;;;8.27;5.33;;;13.90;99.90;;;;;;5030875;28;20209;-96
2022/10/27 02:25:14;;;;;;;11.90;5.30;;;13.90;99.90;;;;;;5006063;28;20239;-92
2022/10/27 02:27:46;;;;;;;11.33;4.97;;;14.00;99.90;;;;;;5006521;28;20228;-92
2022/10/27 02:30:12;;;;;;;12.30;5.63;;;13.90;99.90;;;;;;5037124;28;20230;-93
2022/10/27 02:32:38;;;;;;;10.17;6.63;;;14.00;99.90;;;;;;5021586;28;20320;-95
2022/10/27 02:35:06;;;;;;;9.63;6.60;;;13.90;99.90;;;;;;5022754;28;20208;-93
2022/10/27 02:37:36;;;;;;;11.17;5.07;;;13.90;99.90;;;;;;5020597;28;20230;-94
2022/10/27 02:40:03;;;;;;;11.57;6.40;;;14.00;99.90;;;;;;5019360;28;20226;-92
2022/10/27 02:42:28;;;;;;;10.50;6.20;;;14.00;99.90;;;;;;5020990;28;20222;-92
2022/10/27 02:44:54;;;;;;;10.37;6.57;;;14.00;99.90;;;;;;5023024;28;20204;-92
2022/10/27 02:47:20;;;;;;;9.40;6.70;;;14.10;99.90;;;;;;5023758;28;20186;-91
2022/10/27 02:49:46;;;;;;;11.93;5.50;;;14.20;99.90;;;;;;5005702;28;21002;-92
2022/10/27 02:52:12;;;;;;;11.50;6.27;;;14.20;99.90;;;;;;5022950;28;20225;-92
2022/10/27 02:54:39;;;;;;;14.53;5.60;;;14.20;99.90;;;;;;5006166;28;20275;-92
2022/10/27 02:57:05;;;;;;;7.57;5.77;;;14.20;99.90;;;;;;5005728;28;20222;-94
2022/10/27 02:59:31;;;;;;;10.43;6.70;;;14.20;99.90;;;;;;5005538;28;20197;-95
2022/10/27 03:01:56;;;;;;;17.07;8.40;;;14.30;99.90;;;;;;5008386;28;20571;-93
2022/10/27 03:04:22;;;;;;;12.27;5.60;;;14.30;99.90;;;;;;4985814;28;20235;-94
2022/10/27 03:06:48;;;;;;;7.63;5.50;;;14.30;99.90;;;;;;5021549;28;20227;-93
2022/10/27 03:09:14;;;;;;;9.13;5.00;;;14.30;99.90;;;;;;4997007;28;20564;-94
2022/10/27 03:11:40;;;;;;;12.30;5.90;;;14.30;99.90;;;;;;4995837;28;20191;-94
2022/10/27 03:14:05;;;;;;;12.20;6.67;;;14.30;99.90;;;;;;4997010;28;20675;-92
2022/10/27 03:16:31;;;;;;;7.90;5.93;;;14.30;99.90;;;;;;5012780;28;20219;-94
2022/10/27 03:18:57;;;;;;;7.63;4.90;;;14.30;99.90;;;;;;5013139;28;20350;-93
2022/10/27 03:21:23;;;;;;;13.57;8.30;;;14.40;99.90;;;;;;5012627;28;20238;-93
2022/10/27 03:23:49;;;;;;;7.67;5.37;;;14.30;99.90;;;;;;4998368;28;20187;-96
2022/10/27 03:26:15;;;;;;;10.47;6.03;;;14.40;99.90;;;;;;5017399;28;20183;-95
2022/10/27 03:28:41;;;;;;;10.20;5.67;;;14.40;99.90;;;;;;4999867;28;20234;-92
2022/10/27 03:31:06;;;;;;;10.60;5.40;;;14.40;99.90;;;;;;5008775;28;20218;-93
2022/10/27 03:33:32;;;;;;;15.70;6.17;;;14.40;99.90;;;;;;4996668;28;20234;-93
2022/10/27 03:35:59;;;;;;;12.63;6.73;;;14.40;99.90;;;;;;5013779;28;20195;-93
2022/10/27 03:38:25;;;;;;;8.60;5.80;;;14.40;99.90;;;;;;5030358;28;20198;-93
2022/10/27 03:40:50;;;;;;;10.10;6.87;;;14.50;99.90;;;;;;5014690;28;20219;-95
2022/10/27 03:43:17;;;;;;;11.50;6.40;;;14.50;99.90;;;;;;5017935;28;20223;-92
2022/10/27 03:45:48;;;;;;;19.20;5.97;;;14.60;99.90;;;;;;4983201;28;20215;-94
2022/10/27 03:48:15;;;;;;;12.97;6.93;;;14.50;99.90;;;;;;4993086;28;20304;-94
2022/10/27 03:50:48;;;;;;;7.33;5.27;;;14.50;99.90;;;;;;4993102;28;20187;-95
2022/10/27 03:53:14;;;;;;;8.63;6.10;;;14.50;99.90;;;;;;5008706;28;20210;-93
2022/10/27 03:55:40;;;;;;;6.83;5.73;;;14.40;99.90;;;;;;4993498;28;20647;-94
2022/10/27 03:58:09;;;;;;;9.40;6.63;;;14.40;99.90;;;;;;4999223;28;20215;-94
2022/10/27 04:00:34;;;;;;;19.13;5.80;;;14.40;99.90;;;;;;4995141;28;20566;-91
2022/10/27 04:03:00;;;;;;;8.67;5.97;;;14.40;99.90;;;;;;4991149;28;20218;-93
2022/10/27 04:05:26;;;;;;;13.70;6.90;;;14.50;99.90;;;;;;4991501;28;20191;-93
2022/10/27 04:07:51;;;;;;;9.77;6.07;;;14.50;99.90;;;;;;4990665;28;20210;-92
2022/10/27 04:10:17;;;;;;;9.77;6.13;;;14.50;99.90;;;;;;4990410;28;20218;-92
2022/10/27 04:12:51;;;;;;;8.90;6.43;;;14.40;99.90;;;;;;4999417;28;20237;-90
2022/10/27 04:15:18;;;;;;;9.33;6.97;;;14.40;99.90;;;;;;5003110;28;20281;-91
2022/10/27 04:17:43;;;;;;;8.23;5.47;;;14.30;99.90;;;;;;4989852;28;20221;-89
2022/10/27 04:20:10;;;;;;;9.07;5.43;;;14.30;99.90;;;;;;4990126;28;20176;-89
2022/10/27 04:22:35;;;;;;;7.77;5.27;;;14.30;99.90;;;;;;5005752;28;20241;-91
2022/10/27 04:25:01;;;;;;;9.77;6.10;;;14.30;99.90;;;;;;5021646;28;20211;-92
2022/10/27 04:27:28;;;;;;;10.23;6.40;;;14.30;99.90;;;;;;4993400;28;20214;-89
2022/10/27 04:29:54;;;;;;;14.17;6.80;;;14.30;99.90;;;;;;5006696;28;20640;-90
2022/10/27 04:32:19;;;;;;;7.90;5.33;;;14.20;99.90;;;;;;4974139;28;20762;-89
2022/10/27 04:34:45;;;;;;;11.80;5.93;;;14.30;99.90;;;;;;5003637;28;20273;-93
2022/10/27 04:37:11;;;;;;;11.13;5.83;;;14.20;99.90;;;;;;4992080;28;20276;-91
2022/10/27 04:39:37;;;;;;;7.57;5.33;;;14.20;99.90;;;;;;5005317;28;20229;-89
2022/10/27 04:42:03;;;;;;;11.33;5.43;;;14.10;99.90;;;;;;5005990;28;20211;-91
2022/10/27 04:44:29;;;;;;;6.33;5.20;;;14.10;99.90;;;;;;5006725;28;20666;-91
2022/10/27 04:46:54;;;;;;;5.17;4.27;;;14.10;99.90;;;;;;5006988;28;20310;-91
2022/10/27 04:49:20;;;;;;;7.33;4.90;;;14.10;99.90;;;;;;4989287;28;20231;-91
2022/10/27 04:51:46;;;;;;;10.07;5.27;;;14.10;99.90;;;;;;5005635;28;20962;-93
2022/10/27 04:54:11;;;;;;;12.63;5.30;;;14.10;99.90;;;;;;4991203;28;20211;-91
2022/10/27 04:56:37;;;;;;;10.60;5.33;;;14.20;99.90;;;;;;4989242;28;20215;-88
2022/10/27 04:59:03;;;;;;;10.83;5.17;;;14.30;99.90;;;;;;4989781;28;20270;-90
2022/10/27 05:01:29;;;;;;;10.00;6.30;;;14.40;99.90;;;;;;4989469;28;20246;-90
2022/10/27 05:03:55;;;;;;;24.83;5.53;;;14.50;99.90;;;;;;4980776;28;20550;-90
2022/10/27 05:06:21;;;;;;;6.00;4.47;;;14.50;99.90;;;;;;5005290;28;20261;-90
2022/10/27 05:08:46;;;;;;;7.47;5.23;;;14.50;99.90;;;;;;5005527;28;20222;-90
2022/10/27 05:11:12;;;;;;;7.43;4.63;;;14.60;99.90;;;;;;5009626;28;20200;-91
2022/10/27 05:13:38;;;;;;;9.93;5.17;;;14.60;99.90;;;;;;5012341;28;20230;-91
2022/10/27 05:16:04;;;;;;;6.50;4.40;;;14.60;99.90;;;;;;5000758;28;20214;-93
2022/10/27 05:18:30;;;;;;;10.73;5.30;;;14.60;99.90;;;;;;4996366;28;20218;-90
2022/10/27 05:20:56;;;;;;;11.50;5.77;;;14.60;99.90;;;;;;5009994;28;20226;-91
2022/10/27 05:23:22;;;;;;;7.97;4.27;;;14.70;99.90;;;;;;5009464;28;20196;-90
2022/10/27 05:25:55;;;;;;;12.30;5.80;;;14.70;99.90;;;;;;5011830;28;20214;-89
2022/10/27 05:28:21;;;;;;;10.23;4.60;;;14.70;99.90;;;;;;4981460;28;20227;-90
2022/10/27 05:30:47;;;;;;;20.77;6.00;;;14.70;99.90;;;;;;5009321;28;20207;-90
2022/10/27 05:33:13;;;;;;;5.37;4.40;;;14.80;99.90;;;;;;4975481;28;20555;-92
2022/10/27 05:35:40;;;;;;;6.20;5.20;;;14.80;99.90;;;;;;4991728;28;20255;-90
2022/10/27 05:38:06;;;;;;;6.53;4.47;;;14.80;99.90;;;;;;4993056;28;20215;-91
2022/10/27 05:40:34;;;;;;;6.63;5.23;;;14.80;99.90;;;;;;5004571;28;20212;-91
2022/10/27 05:43:01;;;;;;;10.60;3.73;;;14.80;99.90;;;;;;4992725;28;20302;-89
2022/10/27 05:45:27;;;;;;;8.33;4.93;;;14.80;99.90;;;;;;4995469;28;20218;-89
2022/10/27 05:47:58;;;;;;;5.40;4.13;;;14.80;99.90;;;;;;4992645;28;20191;-89
2022/10/27 05:50:24;;;;;;;8.63;4.53;;;14.80;99.90;;;;;;5008336;28;20187;-91
2022/10/27 05:52:50;;;;;;;11.43;4.27;;;14.80;99.90;;;;;;5023256;28;20223;-92
2022/10/27 05:55:16;;;;;;;6.90;4.10;;;14.80;99.90;;;;;;5002396;28;20237;-90
2022/10/27 05:57:42;;;;;;;7.50;4.40;;;14.90;99.90;;;;;;4991844;28;20215;-90
2022/10/27 06:00:08;;;;;;;9.50;4.03;;;14.90;99.90;;;;;;4995486;28;20731;-91
2022/10/27 06:02:34;;;;;;;8.63;4.70;;;14.80;99.90;;;;;;4995604;28;20187;-90
2022/10/27 06:04:59;;;;;;;11.80;5.47;;;14.80;99.90;;;;;;5008325;28;20266;-92
2022/10/27 06:07:25;;;;;;;4.20;3.80;;;14.80;99.90;;;;;;4994964;28;20222;-90
2022/10/27 06:09:51;;;;;;;6.87;5.00;;;14.90;99.90;;;;;;4984108;28;21017;-90
2022/10/27 06:12:17;;;;;;;8.33;4.63;;;14.80;99.90;;;;;;4993641;28;20223;-90
2022/10/27 06:14:42;;;;;;;9.20;4.83;;;14.80;99.90;;;;;;5007479;28;20201;-91
2022/10/27 06:17:08;;;;;;;9.40;5.43;;;14.80;99.90;;;;;;4992105;28;20342;-90
2022/10/27 06:19:34;;;;;;;9.57;4.47;;;14.80;99.90;;;;;;4992169;28;20231;-91
2022/10/27 06:21:59;;;;;;;8.57;5.70;;;14.80;99.90;;;;;;4999385;28;20229;-92
2022/10/27 06:24:25;;;;;;;7.73;4.63;;;14.80;99.90;;;;;;4996700;28;20214;-90
2022/10/27 06:26:51;;;;;;;9.70;4.60;;;14.90;99.90;;;;;;5011757;28;20713;-90
2022/10/27 06:29:16;;;;;;;6.37;4.47;;;14.80;99.90;;;;;;4976999;28;20765;-90
2022/10/27 06:31:42;;;;;;;8.57;4.73;;;14.90;99.90;;;;;;5006095;28;20262;-91
2022/10/27 06:34:08;;;;;;;8.93;4.60;;;14.90;99.90;;;;;;4998432;28;20214;-91
2022/10/27 06:36:34;;;;;;;17.80;4.17;;;14.90;99.90;;;;;;4996974;28;20272;-91
2022/10/27 06:38:59;;;;;;;6.00;4.17;;;14.90;99.90;;;;;;5007723;28;20207;-94
2022/10/27 06:41:25;;;;;;;6.70;3.37;;;14.90;99.90;;;;;;5005862;28;20317;-92
2022/10/27 06:43:51;;;;;;;5.17;3.63;;;14.80;99.90;;;;;;5011485;28;20679;-91
2022/10/27 06:46:17;;;;;;;6.93;4.33;;;14.90;99.90;;;;;;4990634;28;20277;-90
2022/10/27 06:48:42;;;;;;;5.63;3.77;;;14.90;99.90;;;;;;4978406;28;20751;-93
2022/10/27 06:51:08;;;;;;;6.17;3.90;;;14.90;99.90;;;;;;4991014;28;20218;-89
2022/10/27 06:53:34;;;;;;;6.90;4.37;;;15.00;99.90;;;;;;5010577;28;20197;-93
2022/10/27 06:56:00;;;;;;;7.13;4.93;;;15.00;99.90;;;;;;5016056;28;20290;-92
2022/10/27 06:58:26;;;;;;;7.50;4.23;;;15.20;99.90;;;;;;5022454;28;20301;-93
2022/10/27 07:00:52;;;;;;;7.37;4.23;;;15.30;99.90;;;;;;5021638;28;20657;-93
2022/10/27 07:03:18;;;;;;;4.50;3.53;;;15.40;99.90;;;;;;5022197;28;20224;-93
2022/10/27 07:05:43;;;;;;;5.97;4.17;;;15.40;99.90;;;;;;5023838;28;21048;-93
2022/10/27 07:08:09;;;;;;;11.83;4.30;;;15.40;99.90;;;;;;5009484;28;20655;-93
2022/10/27 07:10:35;;;;;;;7.07;3.50;;;15.40;99.90;;;;;;5006578;28;20238;-93
2022/10/27 07:13:01;;;;;;;7.17;4.40;;;15.50;99.90;;;;;;5026356;28;20679;-94
2022/10/27 07:15:31;;;;;;;6.37;5.03;;;15.50;99.90;;;;;;5023681;28;20241;-88
2022/10/27 07:17:59;;;;;;;7.17;4.03;;;15.50;99.90;;;;;;5036455;28;21275;-93
2022/10/27 07:20:25;;;;;;;7.47;5.10;;;15.50;99.90;;;;;;5037201;28;20190;-92
2022/10/27 07:22:51;;;;;;;8.20;3.57;;;15.60;99.90;;;;;;5005992;28;20229;-94
2022/10/27 07:25:16;;;;;;;7.40;4.27;;;15.60;99.90;;;;;;5023267;28;20228;-94
2022/10/27 07:27:52;;;;;;;8.77;4.87;;;15.60;99.90;;;;;;5029898;28;20218;-94
2022/10/27 07:30:19;;;;;;;7.73;3.97;;;15.60;99.90;;;;;;5009585;28;20223;-94
2022/10/27 07:32:45;;;;;;;6.83;4.00;;;15.60;99.90;;;;;;4990118;28;20239;-93
2022/10/27 07:35:11;;;;;;;7.70;4.13;;;15.60;99.90;;;;;;4997014;28;20891;-94
2022/10/27 07:37:45;;;;;;;6.57;4.57;;;15.60;99.90;;;;;;4978273;28;20227;-93
2022/10/27 07:40:12;;;;;;;8.33;3.20;;;15.70;99.90;;;;;;4991849;28;20238;-94
2022/10/27 07:42:50;;;;;;;5.63;3.80;;;15.70;99.90;;;;;;5010096;28;20223;-94
2022/10/27 07:45:17;;;;;;;11.40;4.80;;;15.80;99.90;;;;;;5006587;28;20285;-91
2022/10/27 07:47:48;;;;;;;5.77;3.43;;;15.90;99.90;;;;;;5009544;28;20199;-95
2022/10/27 07:50:15;;;;;;;7.23;3.93;;;15.90;99.90;;;;;;5026087;28;20721;-93
2022/10/27 07:52:51;;;;;;;4.67;3.87;;;16.10;99.90;;;;;;5025002;28;20897;-93
2022/10/27 07:55:20;;;;;;;8.30;3.70;;;16.30;99.90;;;;;;5008612;28;20309;-94
2022/10/27 07:57:46;;;;;;;5.27;4.00;;;16.30;99.90;;;;;;5000025;28;20215;-94
2022/10/27 08:00:16;;;;;;;9.73;4.40;;;16.10;99.90;;;;;;4991570;28;20230;-92
2022/10/27 08:02:43;;;;;;;6.33;4.90;;;16.10;99.90;;;;;;5014593;28;20183;-92
2022/10/27 08:05:09;;;;;;;5.00;4.03;;;16.20;99.90;;;;;;5007753;28;20752;-93
2022/10/27 08:07:37;;;;;;;6.80;4.33;;;16.20;99.90;;;;;;5008602;28;20312;-93
2022/10/27 08:10:03;;;;;;;5.97;3.40;;;16.10;99.90;;;;;;5005535;28;20219;-93
2022/10/27 08:12:29;;;;;;;8.20;4.73;;;16.30;99.90;;;;;;5009010;28;20218;-94
2022/10/27 08:14:55;;;;;;;7.33;4.50;;;16.60;99.90;;;;;;5006676;28;20360;-94
2022/10/27 08:17:20;;;;;;;6.13;4.33;;;17.00;99.90;;;;;;5007292;28;20202;-94
2022/10/27 08:19:46;;;;;;;10.20;4.67;;;17.10;99.90;;;;;;4992199;28;20543;-93
2022/10/27 08:22:12;;;;;;;5.53;3.37;;;17.20;99.90;;;;;;5006252;28;20416;-94
2022/10/27 08:24:38;;;;;;;5.77;3.83;;;17.20;99.90;;;;;;4993827;28;20218;-93
2022/10/27 08:27:04;;;;;;;4.77;3.60;;;17.20;99.90;;;;;;5023229;28;20215;-93
2022/10/27 08:29:30;;;;;;;6.20;3.60;;;17.20;99.90;;;;;;4977974;28;20211;-93
2022/10/27 08:31:56;;;;;;;7.73;3.93;;;17.10;99.90;;;;;;5013813;28;20986;-94
2022/10/27 08:34:21;;;;;;;4.83;4.17;;;17.10;99.90;;;;;;4982704;28;20223;-94
2022/10/27 08:36:47;;;;;;;5.23;3.17;;;16.90;99.90;;;;;;4994922;28;20233;-93
2022/10/27 08:39:16;;;;;;;5.17;3.87;;;16.90;99.90;;;;;;4998479;28;20230;-94
2022/10/27 08:41:56;;;;;;;5.57;3.00;;;16.80;99.90;;;;;;5010784;28;20206;-93
2022/10/27 08:44:58;;;;;;;5.37;3.00;;;16.80;99.90;;;;;;5010637;28;20179;-92
2022/10/27 08:47:25;;;;;;;9.33;3.27;;;16.70;99.90;;;;;;4996268;28;20244;-93
2022/10/27 08:49:56;;;;;;;6.23;3.67;;;16.70;99.90;;;;;;4981098;28;20235;-94
2022/10/27 08:52:32;;;;;;;4.60;3.30;;;16.70;99.90;;;;;;4998312;28;20223;-93
2022/10/27 08:55:24;;;;;;;6.83;3.83;;;16.90;99.90;;;;;;5009278;28;20214;-93
2022/10/27 08:58:18;;;;;;;5.53;2.77;;;17.10;99.90;;;;;;4986394;28;20293;-93
2022/10/27 09:00:52;;;;;;;3.20;2.30;;;17.30;99.90;;;;;;5030369;28;20218;-93
2022/10/27 09:03:27;;;;;;;6.40;2.93;;;17.50;99.90;;;;;;5031276;28;20273;-94
2022/10/27 09:06:02;;;;;;;3.40;3.00;;;17.70;99.90;;;;;;5014041;28;20272;-96
2022/10/27 09:08:57;;;;;;;4.90;2.57;;;17.90;99.90;;;;;;5030645;28;20691;-93
2022/10/27 09:11:41;;;;;;;3.87;2.70;;;18.00;99.90;;;;;;5011668;28;20569;-94
2022/10/27 09:14:28;;;;;;;4.07;2.40;;;18.00;99.90;;;;;;5027448;28;20211;-94
2022/10/27 09:17:00;;;;;;;2.97;2.63;;;18.10;99.90;;;;;;5028103;28;20226;-93
2022/10/27 09:19:34;;;;;;;3.97;2.43;;;18.20;99.90;;;;;;5022388;28;20334;-92
2022/10/27 09:22:04;;;;;;;4.17;2.00;;;18.20;99.90;;;;;;4992181;28;20222;-93
2022/10/27 09:24:33;;;;;;;4.53;2.83;;;18.10;99.90;;;;;;5017246;28;20298;-92
2022/10/27 09:27:01;;;;;;;4.63;2.43;;;18.10;99.90;;;;;;5008898;28;20215;-94
2022/10/27 09:29:30;;;;;;;3.13;2.07;;;18.20;99.90;;;;;;5009278;28;20294;-93
2022/10/27 09:32:05;;;;;;;4.63;2.27;;;18.20;99.90;;;;;;5011542;28;20331;-93
2022/10/27 09:34:41;;;;;;;4.20;2.13;;;18.10;99.90;;;;;;5008237;28;20605;-95
2022/10/27 09:37:17;;;;;;;3.13;2.50;;;17.90;99.90;;;;;;5018474;28;20755;-94
2022/10/27 09:39:47;;;;;;;4.77;3.20;;;18.00;99.90;;;;;;5009878;28;20237;-94
2022/10/27 09:42:14;;;;;;;6.07;3.07;;;18.10;99.90;;;;;;4994205;28;20428;-95
2022/10/27 09:44:46;;;;;;;3.10;2.80;;;18.10;99.90;;;;;;5025257;28;20211;-95
2022/10/27 09:47:11;;;;;;;4.23;2.10;;;18.20;99.90;;;;;;5009916;28;20199;-93
2022/10/27 09:49:40;;;;;;;5.53;2.07;;;18.20;99.90;;;;;;5009433;28;20231;-94
2022/10/27 09:52:11;;;;;;;3.23;2.27;;;18.10;99.90;;;;;;5008577;28;20591;-94
2022/10/27 09:54:41;;;;;;;7.77;1.83;;;18.10;99.90;;;;;;5008902;28;20230;-96
2022/10/27 09:57:18;;;;;;;2.53;1.90;;;18.10;99.90;;;;;;5008035;28;20555;-94
2022/10/27 10:00:00;;;;;;;3.80;1.93;;;18.00;99.90;;;;;;5009303;28;20230;-93
2022/10/27 10:02:36;;;;;;;2.10;1.87;;;18.00;99.90;;;;;;5025308;28;20186;-93
2022/10/27 10:05:26;;;;;;;2.53;2.00;;;17.90;99.90;;;;;;5008472;28;20215;-93
2022/10/27 10:07:53;;;;;;;3.03;2.07;;;17.90;99.90;;;;;;5023796;28;20219;-93
2022/10/27 10:10:28;;;;;;;2.77;1.93;;;17.80;99.90;;;;;;4991767;28;20227;-91
2022/10/27 10:13:00;;;;;;;4.90;2.17;;;17.80;99.90;;;;;;4991158;28;20284;-90
2022/10/27 10:15:26;;;;;;;3.07;1.83;;;17.80;99.90;;;;;;5014396;28;20222;-92
2022/10/27 10:17:57;;;;;;;6.97;2.03;;;17.90;99.90;;;;;;5009437;28;20609;-90
2022/10/27 10:20:31;;;;;;;3.17;1.90;;;17.90;99.90;;;;;;5008578;28;20707;-93
2022/10/27 10:22:58;;;;;;;3.37;2.00;;;18.00;99.90;;;;;;5026856;28;20214;-94
2022/10/27 10:25:28;;;;;;;4.67;1.77;;;18.10;99.90;;;;;;5007543;28;20695;-89
2022/10/27 10:28:03;;;;;;;5.63;2.30;;;18.20;99.90;;;;;;5008099;28;20318;-92
2022/10/27 10:30:38;;;;;;;3.23;2.37;;;18.20;99.90;;;;;;5024338;28;20329;-92
2022/10/27 10:33:06;;;;;;;3.80;2.67;;;18.20;99.90;;;;;;4981014;28;20225;-92
2022/10/27 10:35:47;;;;;;;2.73;2.23;;;18.20;99.90;;;;;;5029974;28;20218;-93
2022/10/27 10:38:26;;;;;;;3.77;2.37;;;18.20;99.90;;;;;;5040127;28;20573;-95
2022/10/27 10:41:00;;;;;;;3.80;2.40;;;18.30;99.90;;;;;;5003721;28;20226;-93
2022/10/27 10:43:26;;;;;;;2.57;2.17;;;18.20;99.90;;;;;;5039123;28;20236;-92
2022/10/27 10:45:52;;;;;;;3.67;2.50;;;18.20;99.90;;;;;;5020958;28;21166;-93
2022/10/27 10:48:46;;;;;;;3.03;2.10;;;18.40;99.90;;;;;;5007771;28;20222;-92
2022/10/27 10:51:26;;;;;;;4.37;2.40;;;18.60;99.90;;;;;;5029079;28;20265;-92
2022/10/27 10:54:03;;;;;;;4.93;2.47;;;18.50;99.90;;;;;;5022045;28;20183;-93
2022/10/27 10:56:31;;;;;;;6.40;2.57;;;18.50;99.90;;;;;;5037568;28;20177;-94
2022/10/27 10:59:08;;;;;;;5.10;1.93;;;18.60;99.90;;;;;;5038775;28;20294;-92
2022/10/27 11:02:06;;;;;;;2.30;1.43;;;18.80;99.90;;;;;;5037439;28;20252;-92
2022/10/27 11:04:43;;;;;;;2.50;2.23;;;19.10;99.90;;;;;;4985976;28;20242;-92
2022/10/27 11:07:14;;;;;;;4.03;2.27;;;19.30;99.90;;;;;;5008725;28;20214;-92
2022/10/27 11:09:59;;;;;;;3.50;2.17;;;19.50;99.90;;;;;;4990898;28;20246;-93
2022/10/27 11:12:34;;;;;;;2.97;1.77;;;19.70;99.90;;;;;;5010116;28;20223;-92
2022/10/27 11:15:05;;;;;;;3.83;1.77;;;19.90;99.90;;;;;;5025023;28;20230;-92
2022/10/27 11:17:34;;;;;;;5.07;1.87;;;19.70;99.90;;;;;;5008577;28;20191;-94
2022/10/27 11:20:04;;;;;;;6.87;1.27;;;19.70;99.90;;;;;;5010064;28;20223;-92
2022/10/27 11:22:31;;;;;;;3.03;1.23;;;19.90;99.90;;;;;;5010952;28;20223;-90
2022/10/27 11:25:18;;;;;;;1.17;1.07;;;20.00;99.90;;;;;;5020020;28;20749;-92
2022/10/27 11:28:00;;;;;;;2.83;1.60;;;19.90;99.90;;;;;;5001364;28;20614;-95
2022/10/27 11:30:27;;;;;;;1.80;1.70;;;19.70;99.90;;;;;;4994666;28;20231;-93
2022/10/27 11:33:01;;;;;;;1.47;1.20;;;19.70;99.90;;;;;;4991160;28;20292;-94
2022/10/27 11:35:39;;;;;;;6.73;1.80;;;19.80;99.90;;;;;;5008930;28;20278;-92
2022/10/27 11:38:15;;;;;;;2.77;1.40;;;20.00;99.90;;;;;;5008450;28;20226;-93
2022/10/27 11:40:56;;;;;;;3.17;1.80;;;20.10;99.90;;;;;;5011351;28;20218;-94
2022/10/27 11:43:39;;;;;;;3.40;1.43;;;20.00;99.90;;;;;;4998252;28;20230;-93
2022/10/27 11:46:28;;;;;;;2.70;1.03;;;20.00;99.90;;;;;;4995388;28;20285;-95
2022/10/27 11:49:04;;;;;;;1.97;1.47;;;20.00;99.90;;;;;;5016881;28;20223;-93
2022/10/27 11:51:44;;;;;;;3.23;1.60;;;20.20;99.90;;;;;;5011683;28;20217;-92
2022/10/27 11:54:10;;;;;;;2.80;1.10;;;20.20;99.90;;;;;;5007044;28;20615;-92
2022/10/27 11:56:55;;;;;;;5.00;2.10;;;20.40;99.90;;;;;;4979305;28;20183;-89
2022/10/27 12:12:29;;;;;;;1.93;0.93;;;20.20;99.90;;;;;;5032243;28;20288;-96
2022/10/27 12:15:11;;;;;;;1.63;1.53;;;20.10;99.90;;;;;;5034486;28;20182;-95
2022/10/27 12:17:50;;;;;;;5.93;1.40;;;20.20;99.90;;;;;;5040795;28;20525;-93
2022/10/27 13:15:21;;;;;;;2.50;1.20;;;19.40;99.90;;;;;;5043812;28;20256;-91
2022/10/27 13:17:47;;;;;;;3.23;1.17;;;19.30;99.90;;;;;;5048461;28;20192;-92
2022/10/27 13:20:21;;;;;;;1.10;1.00;;;19.30;99.90;;;;;;5037743;28;20199;-91
2022/10/27 13:23:00;;;;;;;2.80;1.27;;;19.30;99.90;;;;;;5030869;28;20220;-92
2022/10/27 13:25:34;;;;;;;3.73;1.10;;;19.20;99.90;;;;;;5045084;28;20572;-91
2022/10/27 13:28:28;;;;;;;1.50;0.70;;;19.20;99.90;;;;;;5048650;28;20221;-92
2022/10/27 13:31:09;;;;;;;2.67;1.23;;;19.10;99.90;;;;;;5056911;28;20656;-91
2022/10/27 13:33:38;;;;;;;2.70;1.10;;;19.10;99.90;;;;;;5047421;28;20216;-90
2022/10/27 13:36:18;;;;;;;2.00;1.30;;;19.10;99.90;;;;;;5033843;28;20212;-90
2022/10/27 13:38:43;;;;;;;1.47;1.13;;;19.00;99.90;;;;;;5053715;28;21010;-90
2022/10/27 13:41:09;;;;;;;3.67;1.87;;;18.90;99.90;;;;;;5036202;28;20272;-91
2022/10/27 13:43:55;;;;;;;1.73;1.30;;;18.90;99.90;;;;;;5052326;28;20710;-92
2022/10/27 13:46:40;;;;;;;2.07;1.33;;;18.70;99.90;;;;;;5061883;28;20300;-92
2022/10/27 13:49:06;;;;;;;1.60;1.13;;;18.60;99.90;;;;;;5039194;28;20213;-91
2022/10/27 13:51:43;;;;;;;2.53;1.80;;;18.40;99.90;;;;;;5051952;28;20216;-91
2022/10/27 13:55:03;;;;;;;4.23;1.53;;;18.30;99.90;;;;;;5036893;28;20601;-92
2022/10/27 13:57:53;;;;;;;1.87;0.90;;;18.20;99.90;;;;;;5023884;28;20217;-91
2022/10/27 14:00:22;;;;;;;1.53;1.27;;;18.10;99.90;;;;;;5044080;28;20267;-94
2022/10/27 14:03:10;;;;;;;2.23;1.40;;;18.10;99.90;;;;;;5035045;28;20622;-92
2022/10/27 14:05:44;;;;;;;1.47;1.33;;;18.00;99.90;;;;;;5047028;28;20624;-92
2022/10/27 14:08:22;;;;;;;4.43;1.80;;;18.00;99.90;;;;;;5032582;28;20359;-94
2022/10/27 14:10:49;;;;;;;2.30;1.20;;;18.00;99.90;;;;;;5019021;28;20214;-91
2022/10/27 14:13:26;;;;;;;1.50;1.37;;;18.00;99.90;;;;;;5031428;28;20220;-93